createdAt,value
2017-12-01T00:00:13.334Z,73.60
2017-12-01T00:01:13.382Z,79.60
2017-12-01T00:02:13.347Z,75.40
2017-12-01T00:03:13.422Z,77.00
2017-12-01T00:04:13.352Z,71.20
2017-12-01T00:05:13.411Z,75.10
2017-12-01T00:06:13.365Z,71.50
2017-12-01T00:07:13.428Z,74.20
2017-12-01T00:08:13.362Z,74.50
2017-12-01T00:09:13.448Z,72.50
2017-12-01T00:10:13.376Z,75.00
2017-12-01T00:11:13.454Z,69.70
2017-12-01T00:12:13.379Z,74.30
2017-12-01T00:13:13.386Z,76.00
2017-12-01T00:14:13.393Z,75.70
2017-12-01T00:15:13.396Z,82.30
2017-12-01T00:16:13.490Z,77.40
2017-12-01T00:17:13.422Z,77.10
2017-12-01T00:18:13.507Z,79.10
2017-12-01T00:19:13.417Z,84.00
2017-12-01T00:20:13.513Z,77.70
2017-12-01T00:21:13.431Z,83.10
2017-12-01T00:22:13.524Z,75.90
2017-12-01T00:23:13.429Z,77.80
2017-12-01T00:24:13.542Z,78.80
2017-12-01T00:25:13.442Z,74.40
2017-12-01T00:26:13.553Z,75.20
2017-12-01T00:27:13.446Z,81.30
2017-12-01T00:28:13.566Z,74.50
2017-12-01T00:29:13.456Z,78.10
2017-12-01T00:30:13.479Z,79.70
2017-12-01T00:31:13.469Z,78.40
2017-12-01T00:32:13.488Z,74.90
2017-12-01T00:33:13.481Z,74.60
2017-12-01T00:34:13.480Z,71.70
2017-12-01T00:35:13.481Z,74.60
2017-12-01T00:36:13.484Z,77.70
2017-12-01T00:37:13.525Z,72.80
2017-12-01T00:38:13.488Z,74.20
2017-12-01T00:39:13.539Z,77.10
2017-12-01T00:40:13.496Z,74.80
2017-12-01T00:41:13.552Z,75.90
2017-12-01T00:42:13.520Z,74.60
2017-12-01T00:43:13.566Z,71.50
2017-12-01T00:44:13.519Z,72.10
2017-12-01T00:45:13.520Z,72.90
2017-12-01T00:46:13.525Z,76.90
2017-12-01T00:47:13.595Z,75.00
2017-12-01T00:48:13.534Z,75.30
2017-12-01T00:49:13.606Z,75.50
2017-12-01T00:50:13.541Z,71.50
2017-12-01T00:51:13.628Z,76.60
2017-12-01T00:52:13.556Z,72.80
2017-12-01T00:53:13.634Z,74.60
2017-12-01T00:54:13.560Z,78.80
2017-12-01T00:55:13.649Z,73.70
2017-12-01T00:56:13.579Z,74.40
2017-12-01T00:57:13.666Z,71.60
2017-12-01T00:58:13.586Z,70.50
2017-12-01T00:59:13.677Z,69.50
2017-12-01T01:00:13.590Z,71.50
2017-12-01T01:01:13.686Z,70.80
2017-12-01T01:02:13.601Z,64.50
2017-12-01T01:03:13.702Z,70.00
2017-12-01T01:04:13.609Z,69.10
2017-12-01T01:05:13.716Z,70.10
2017-12-01T01:06:13.620Z,69.60
2017-12-01T01:07:13.614Z,70.40
2017-12-01T01:08:13.683Z,68.10
2017-12-01T01:09:13.635Z,63.80
2017-12-01T01:10:13.694Z,71.00
2017-12-01T01:11:13.642Z,65.30
2017-12-01T01:12:13.701Z,67.60
2017-12-01T01:13:13.674Z,65.90
2017-12-01T01:14:13.761Z,63.10
2017-12-01T01:15:13.660Z,65.10
2017-12-01T01:16:13.733Z,62.50
2017-12-01T01:17:13.665Z,63.80
2017-12-01T01:18:13.766Z,70.80
2017-12-01T01:19:13.664Z,69.50
2017-12-01T01:20:13.778Z,66.10
2017-12-01T01:21:13.669Z,66.50
2017-12-01T01:22:13.804Z,63.70
2017-12-01T01:23:13.684Z,66.50
2017-12-01T01:24:15.349Z,66.70
2017-12-01T01:25:13.824Z,62.80
2017-12-01T01:26:13.693Z,60.70
2017-12-01T01:27:13.707Z,63.50
2017-12-01T01:28:13.707Z,67.40
2017-12-01T01:29:13.734Z,62.20
2017-12-01T01:30:13.710Z,56.10
2017-12-01T01:31:13.736Z,60.70
2017-12-01T01:32:13.733Z,63.70
2017-12-01T01:33:13.778Z,58.90
2017-12-01T01:34:13.730Z,60.10
2017-12-01T01:35:13.773Z,63.90
2017-12-01T01:36:13.743Z,66.60
2017-12-01T01:37:13.775Z,63.10
2017-12-01T01:38:13.763Z,60.90
2017-12-01T01:39:13.800Z,63.60
2017-12-01T01:40:13.770Z,60.20
2017-12-01T01:41:13.803Z,67.80
2017-12-01T01:42:13.769Z,60.70
2017-12-01T01:43:13.863Z,62.40
2017-12-01T01:44:13.778Z,62.50
2017-12-01T01:45:13.832Z,67.00
2017-12-01T01:46:13.790Z,67.40
2017-12-01T01:47:13.841Z,62.40
2017-12-01T01:48:13.796Z,66.80
2017-12-01T01:49:13.856Z,62.90
2017-12-01T01:50:13.804Z,63.90
2017-12-01T01:51:13.807Z,68.70
2017-12-01T01:52:13.897Z,66.80
2017-12-01T01:53:13.808Z,64.10
2017-12-01T01:54:13.899Z,62.70
2017-12-01T01:55:13.820Z,67.50
2017-12-01T01:56:13.924Z,63.90
2017-12-01T01:57:13.833Z,63.90
2017-12-01T01:58:13.847Z,67.00
2017-12-01T01:59:13.933Z,62.30
2017-12-01T02:00:13.848Z,65.20
2017-12-01T02:01:13.947Z,64.50
2017-12-01T02:02:13.851Z,64.80
2017-12-01T02:03:13.952Z,66.20
2017-12-01T02:04:13.852Z,65.90
2017-12-01T02:05:13.973Z,65.00
2017-12-01T02:06:13.870Z,69.20
2017-12-01T02:07:13.979Z,64.30
2017-12-01T02:08:13.871Z,69.60
2017-12-01T02:09:13.899Z,64.70
2017-12-01T02:10:13.884Z,66.90
2017-12-01T02:11:15.023Z,66.90
2017-12-01T02:12:13.973Z,64.10
2017-12-01T02:13:13.890Z,65.10
2017-12-01T02:14:13.939Z,65.50
2017-12-01T02:15:13.902Z,65.70
2017-12-01T02:16:13.953Z,69.50
2017-12-01T02:17:13.918Z,72.90
2017-12-01T02:18:13.996Z,72.40
2017-12-01T02:19:13.919Z,70.30
2017-12-01T02:20:13.979Z,69.40
2017-12-01T02:21:13.939Z,73.60
2017-12-01T02:22:13.992Z,74.70
2017-12-01T02:23:13.946Z,71.00
2017-12-01T02:24:14.039Z,70.80
2017-12-01T02:25:13.960Z,71.80
2017-12-01T02:26:14.021Z,68.90
2017-12-01T02:27:13.954Z,69.50
2017-12-01T02:28:14.036Z,68.40
2017-12-01T02:29:13.964Z,66.80
2017-12-01T02:30:14.048Z,74.30
2017-12-01T02:31:13.968Z,70.70
2017-12-01T02:32:14.065Z,72.70
2017-12-01T02:33:13.989Z,76.00
2017-12-01T02:34:14.072Z,73.30
2017-12-01T02:35:13.996Z,76.20
2017-12-01T02:36:14.088Z,73.50
2017-12-01T02:37:13.995Z,71.80
2017-12-01T02:38:14.111Z,70.60
2017-12-01T02:39:13.999Z,67.80
2017-12-01T02:40:14.114Z,68.50
2017-12-01T02:42:27.996Z,71.30
2017-12-01T02:43:33.981Z,73.00
2017-12-01T02:44:28.949Z,73.50
2017-12-01T02:45:28.956Z,70.90
2017-12-01T02:46:27.333Z,72.70
2017-12-01T02:47:27.329Z,71.30
2017-12-01T02:48:28.958Z,76.70
2017-12-01T02:49:28.936Z,75.40
2017-12-01T02:50:28.974Z,76.10
2017-12-01T02:51:28.985Z,72.30
2017-12-01T02:52:27.366Z,70.50
2017-12-01T02:53:30.013Z,68.80
2017-12-01T02:54:29.948Z,78.10
2017-12-01T02:55:28.968Z,81.00
2017-12-01T02:56:27.430Z,71.80
2017-12-01T02:57:27.381Z,76.60
2017-12-01T02:58:27.440Z,73.70
2017-12-01T02:59:27.392Z,71.10
2017-12-01T03:00:27.454Z,71.60
2017-12-01T03:01:27.389Z,73.50
2017-12-01T03:02:27.468Z,72.30
2017-12-01T03:03:27.398Z,74.00
2017-12-01T03:04:27.476Z,82.90
2017-12-01T03:05:27.406Z,72.60
2017-12-01T03:06:27.487Z,77.10
2017-12-01T03:07:27.424Z,77.50
2017-12-01T03:08:27.499Z,75.10
2017-12-01T03:09:27.422Z,80.40
2017-12-01T03:10:27.511Z,75.40
2017-12-01T03:11:27.434Z,71.40
2017-12-01T03:12:27.524Z,80.80
2017-12-01T03:13:27.437Z,76.00
2017-12-01T03:14:27.542Z,83.10
2017-12-01T03:15:27.454Z,82.20
2017-12-01T03:16:27.552Z,80.20
2017-12-01T03:17:27.483Z,78.50
2017-12-01T03:18:27.558Z,76.50
2017-12-01T03:19:27.469Z,78.70
2017-12-01T03:20:27.576Z,82.90
2017-12-01T03:21:27.485Z,85.00
2017-12-01T03:22:27.580Z,75.90
2017-12-01T03:23:27.484Z,84.40
2017-12-01T03:24:27.513Z,79.30
2017-12-01T03:25:27.483Z,82.60
2017-12-01T03:26:27.526Z,81.50
2017-12-01T03:27:27.491Z,82.80
2017-12-01T03:28:28.554Z,81.90
2017-12-01T03:29:28.579Z,86.80
2017-12-01T03:30:27.538Z,84.50
2017-12-01T03:31:27.510Z,88.50
2017-12-01T03:32:28.581Z,84.80
2017-12-01T03:33:27.554Z,80.90
2017-12-01T03:34:27.620Z,79.30
2017-12-01T03:35:27.535Z,84.90
2017-12-01T03:36:27.589Z,81.70
2017-12-01T03:37:27.553Z,89.40
2017-12-01T03:38:27.546Z,88.30
2017-12-01T03:39:39.582Z,84.90
2017-12-01T03:40:27.557Z,86.00
2017-12-01T03:41:27.608Z,86.20
2017-12-01T03:42:27.560Z,84.30
2017-12-01T03:43:27.632Z,82.10
2017-12-01T03:44:27.574Z,86.90
2017-12-01T03:45:27.630Z,85.90
2017-12-01T03:46:27.577Z,88.50
2017-12-01T03:47:27.638Z,89.10
2017-12-01T03:48:27.579Z,82.90
2017-12-01T03:49:27.656Z,80.10
2017-12-01T03:50:27.593Z,76.00
2017-12-01T03:51:27.667Z,82.60
2017-12-01T03:52:27.610Z,84.20
2017-12-01T03:53:27.610Z,86.30
2017-12-01T03:54:27.692Z,79.30
2017-12-01T03:55:27.628Z,78.30
2017-12-01T03:56:27.700Z,80.90
2017-12-01T03:57:27.629Z,82.00
2017-12-01T03:58:27.712Z,79.30
2017-12-01T03:59:27.636Z,78.30
2017-12-01T04:00:27.730Z,76.10
2017-12-01T04:01:27.637Z,78.10
2017-12-01T04:02:27.734Z,86.00
2017-12-01T04:03:27.644Z,77.60
2017-12-01T04:04:27.750Z,81.50
2017-12-01T04:05:27.648Z,82.30
2017-12-01T04:06:27.764Z,80.90
2017-12-01T04:07:27.658Z,81.60
2017-12-01T04:08:28.673Z,83.30
2017-12-01T04:09:27.666Z,77.60
2017-12-01T04:10:27.688Z,80.60
2017-12-01T04:11:27.680Z,83.00
2017-12-01T04:12:27.709Z,75.00
2017-12-01T04:13:27.689Z,77.90
2017-12-01T04:14:27.690Z,77.10
2017-12-01T04:15:27.697Z,77.80
2017-12-01T04:16:27.733Z,78.30
2017-12-01T04:17:27.715Z,77.10
2017-12-01T04:18:27.742Z,75.30
2017-12-01T04:19:27.710Z,81.60
2017-12-01T04:20:27.767Z,77.60
2017-12-01T04:21:27.731Z,77.20
2017-12-01T04:22:27.789Z,75.80
2017-12-01T04:23:27.728Z,77.90
2017-12-01T04:24:27.786Z,74.00
2017-12-01T04:25:27.758Z,79.60
2017-12-01T04:26:28.822Z,76.60
2017-12-01T04:27:27.764Z,76.60
2017-12-01T04:28:27.810Z,76.40
2017-12-01T04:29:27.779Z,83.80
2017-12-01T04:30:27.816Z,76.90
2017-12-01T04:31:27.764Z,72.70
2017-12-01T04:32:28.861Z,79.00
2017-12-01T04:33:27.778Z,78.00
2017-12-01T04:34:27.846Z,78.50
2017-12-01T04:35:27.777Z,79.90
2017-12-01T04:36:27.854Z,71.90
2017-12-01T04:37:27.787Z,77.10
2017-12-01T04:38:27.871Z,76.40
2017-12-01T04:39:27.805Z,79.20
2017-12-01T04:40:28.911Z,78.70
2017-12-01T04:41:27.796Z,84.20
2017-12-01T04:42:27.907Z,80.70
2017-12-01T04:43:27.809Z,78.10
2017-12-01T04:44:27.920Z,78.20
2017-12-01T04:45:27.895Z,85.90
2017-12-01T04:46:27.918Z,86.80
2017-12-01T04:47:27.832Z,87.40
2017-12-01T04:48:27.936Z,83.10
2017-12-01T04:49:27.839Z,89.10
2017-12-01T04:50:27.955Z,86.80
2017-12-01T04:51:27.839Z,88.60
2017-12-01T04:52:27.847Z,96.10
2017-12-01T04:53:28.897Z,96.60
2017-12-01T04:54:27.864Z,97.90
2017-12-01T04:55:27.858Z,99.50
2017-12-01T04:56:27.865Z,97.40
2017-12-01T04:57:27.868Z,100.20
2017-12-01T04:58:27.902Z,92.00
2017-12-01T04:59:27.875Z,98.00
2017-12-01T05:00:27.912Z,105.20
2017-12-01T05:01:27.920Z,97.80
2017-12-01T05:02:27.924Z,101.30
2017-12-01T05:03:27.900Z,100.30
2017-12-01T05:04:29.988Z,98.60
2017-12-01T05:05:27.902Z,102.40
2017-12-01T05:06:27.969Z,95.70
2017-12-01T05:07:27.917Z,99.20
2017-12-01T05:08:28.086Z,94.80
2017-12-01T05:09:27.959Z,101.60
2017-12-01T05:10:27.980Z,99.20
2017-12-01T05:11:27.926Z,95.70
2017-12-01T05:12:27.989Z,96.70
2017-12-01T05:13:27.934Z,98.10
2017-12-01T05:14:28.002Z,96.30
2017-12-01T05:15:27.943Z,107.80
2017-12-01T05:16:28.009Z,98.10
2017-12-01T05:17:27.954Z,92.00
2017-12-01T05:18:28.032Z,96.80
2017-12-01T05:19:27.966Z,94.30
2017-12-01T05:20:28.041Z,94.60
2017-12-01T05:21:27.965Z,92.20
2017-12-01T05:22:28.047Z,98.80
2017-12-01T05:23:27.979Z,97.70
2017-12-01T05:24:28.062Z,103.90
2017-12-01T05:25:27.977Z,97.10
2017-12-01T05:26:28.087Z,100.60
2017-12-01T05:27:27.991Z,100.20
2017-12-01T05:28:28.091Z,105.30
2017-12-01T05:29:28.011Z,103.90
2017-12-01T05:30:28.106Z,106.20
2017-12-01T05:31:28.006Z,106.80
2017-12-01T05:32:28.120Z,105.50
2017-12-01T05:33:28.016Z,100.20
2017-12-01T05:34:28.033Z,101.10
2017-12-01T05:35:28.020Z,103.10
2017-12-01T05:36:28.046Z,103.50
2017-12-01T05:37:28.022Z,102.80
2017-12-01T05:38:28.063Z,102.40
2017-12-01T05:39:28.034Z,102.10
2017-12-01T05:40:28.064Z,101.00
2017-12-01T05:41:28.047Z,109.10
2017-12-01T05:42:28.189Z,101.80
2017-12-01T05:43:28.065Z,107.30
2017-12-01T05:44:28.098Z,101.50
2017-12-01T05:45:28.058Z,98.70
2017-12-01T05:46:28.104Z,102.50
2017-12-01T05:47:28.072Z,103.70
2017-12-01T05:48:28.079Z,103.70
2017-12-01T05:49:28.077Z,97.50
2017-12-01T05:50:28.132Z,98.20
2017-12-01T05:51:28.087Z,106.10
2017-12-01T05:52:28.147Z,95.10
2017-12-01T05:53:28.095Z,101.40
2017-12-01T05:54:28.187Z,91.60
2017-12-01T05:55:28.112Z,95.80
2017-12-01T05:56:28.171Z,97.50
2017-12-01T05:57:28.119Z,93.70
2017-12-01T05:58:28.247Z,95.20
2017-12-01T05:59:28.136Z,91.80
2017-12-01T06:00:28.202Z,88.50
2017-12-01T06:01:28.151Z,92.50
2017-12-01T06:02:28.216Z,101.30
2017-12-01T06:03:28.168Z,87.30
2017-12-01T06:04:28.230Z,91.40
2017-12-01T06:05:28.176Z,90.10
2017-12-01T06:06:28.229Z,85.40
2017-12-01T06:07:28.157Z,94.70
2017-12-01T06:08:28.268Z,89.70
2017-12-01T06:09:28.158Z,88.00
2017-12-01T06:10:28.255Z,93.00
2017-12-01T06:11:28.193Z,85.50
2017-12-01T06:12:28.269Z,91.30
2017-12-01T06:13:28.172Z,87.20
2017-12-01T06:14:28.184Z,88.60
2017-12-01T06:15:28.180Z,90.70
2017-12-01T06:16:28.206Z,85.40
2017-12-01T06:17:28.188Z,89.20
2017-12-01T06:18:28.208Z,90.60
2017-12-01T06:19:28.217Z,85.40
2017-12-01T06:20:28.222Z,90.90
2017-12-01T06:21:28.234Z,85.80
2017-12-01T06:22:28.220Z,83.10
2017-12-01T06:23:28.272Z,85.60
2017-12-01T06:24:28.225Z,87.00
2017-12-01T06:25:28.286Z,93.20
2017-12-01T06:26:28.223Z,91.20
2017-12-01T06:27:28.299Z,99.70
2017-12-01T06:28:28.234Z,85.40
2017-12-01T06:29:28.291Z,84.20
2017-12-01T06:30:28.276Z,82.20
2017-12-01T06:31:28.307Z,86.70
2017-12-01T06:32:28.249Z,87.90
2017-12-01T06:33:28.311Z,88.90
2017-12-01T06:34:28.274Z,89.10
2017-12-01T06:35:29.350Z,84.00
2017-12-01T06:36:28.262Z,89.00
2017-12-01T06:37:28.342Z,92.90
2017-12-01T06:38:28.281Z,94.40
2017-12-01T06:39:28.362Z,80.80
2017-12-01T06:40:28.283Z,84.40
2017-12-01T06:41:28.371Z,87.30
2017-12-01T06:42:28.296Z,82.40
2017-12-01T06:43:28.535Z,87.50
2017-12-01T06:44:28.295Z,84.70
2017-12-01T06:45:28.402Z,81.70
2017-12-01T06:46:28.308Z,83.70
2017-12-01T06:47:28.410Z,75.50
2017-12-01T06:48:28.317Z,81.00
2017-12-01T06:49:28.429Z,76.10
2017-12-01T06:50:28.319Z,82.40
2017-12-01T06:51:28.434Z,73.80
2017-12-01T06:52:28.343Z,73.50
2017-12-01T06:53:28.357Z,74.00
2017-12-01T06:54:28.338Z,72.50
2017-12-01T06:55:28.356Z,69.80
2017-12-01T06:56:28.343Z,74.50
2017-12-01T06:57:28.372Z,74.60
2017-12-01T06:58:28.355Z,72.60
2017-12-01T06:59:28.390Z,72.10
2017-12-01T07:00:28.368Z,77.60
2017-12-01T07:01:28.408Z,81.90
2017-12-01T07:02:28.376Z,72.70
2017-12-01T07:03:28.410Z,78.50
2017-12-01T07:04:28.387Z,69.30
2017-12-01T07:05:28.418Z,73.90
2017-12-01T07:06:28.379Z,70.70
2017-12-01T07:07:28.445Z,83.40
2017-12-01T07:08:28.396Z,73.80
2017-12-01T07:09:28.442Z,75.30
2017-12-01T07:10:28.410Z,76.50
2017-12-01T07:11:28.402Z,78.20
2017-12-01T07:12:28.413Z,70.80
2017-12-01T07:13:28.471Z,75.00
2017-12-01T07:14:28.426Z,78.70
2017-12-01T07:15:28.485Z,80.60
2017-12-01T07:16:28.474Z,73.60
2017-12-01T07:17:28.494Z,75.10
2017-12-01T07:18:28.439Z,76.80
2017-12-01T07:19:28.541Z,75.90
2017-12-01T07:20:28.442Z,74.30
2017-12-01T07:21:28.522Z,80.70
2017-12-01T07:22:28.443Z,79.70
2017-12-01T07:23:28.539Z,80.00
2017-12-01T07:24:28.466Z,83.80
2017-12-01T07:25:28.553Z,81.50
2017-12-01T07:26:28.463Z,83.90
2017-12-01T07:27:28.592Z,85.60
2017-12-01T07:28:28.466Z,85.40
2017-12-01T07:29:28.578Z,83.20
2017-12-01T07:30:28.481Z,91.10
2017-12-01T07:31:28.603Z,87.10
2017-12-01T07:32:28.496Z,88.60
2017-12-01T07:33:28.503Z,82.40
2017-12-01T07:34:28.497Z,91.30
2017-12-01T07:35:28.516Z,88.90
2017-12-01T07:36:28.496Z,86.40
2017-12-01T07:37:28.529Z,85.80
2017-12-01T07:38:28.508Z,94.10
2017-12-01T07:39:28.536Z,97.30
2017-12-01T07:40:28.523Z,88.60
2017-12-01T07:41:28.573Z,89.80
2017-12-01T07:42:28.535Z,90.20
2017-12-01T07:43:28.577Z,90.10
2017-12-01T07:44:28.528Z,96.50
2017-12-01T07:45:28.587Z,94.40
2017-12-01T07:46:28.543Z,96.20
2017-12-01T07:47:28.594Z,100.40
2017-12-01T07:48:28.574Z,95.10
2017-12-01T07:49:28.605Z,90.40
2017-12-01T07:50:28.571Z,93.60
2017-12-01T07:51:29.643Z,98.10
2017-12-01T07:52:28.578Z,97.60
2017-12-01T07:53:28.574Z,96.70
2017-12-01T07:54:28.579Z,94.20
2017-12-01T07:55:28.600Z,95.80
2017-12-01T07:56:28.616Z,88.10
2017-12-01T07:57:28.595Z,87.30
2017-12-01T07:58:28.624Z,87.60
2017-12-01T07:59:28.604Z,95.40
2017-12-01T08:00:28.591Z,89.30
2017-12-01T08:01:28.611Z,86.70
2017-12-01T08:02:28.605Z,88.50
2017-12-01T08:03:28.632Z,86.10
2017-12-01T08:04:28.614Z,84.60
2017-12-01T08:05:28.622Z,86.40
2017-12-01T08:06:28.627Z,89.40
2017-12-01T08:07:28.623Z,80.00
2017-12-01T08:08:28.660Z,81.70
2017-12-01T08:09:28.647Z,78.80
2017-12-01T08:10:28.638Z,80.10
2017-12-01T08:11:28.652Z,81.10
2017-12-01T08:12:28.656Z,77.00
2017-12-01T08:13:28.652Z,84.30
2017-12-01T08:14:28.645Z,81.80
2017-12-01T08:15:28.662Z,79.20
2017-12-01T08:16:28.651Z,75.30
2017-12-01T08:17:28.662Z,75.80
2017-12-01T08:18:28.662Z,79.90
2017-12-01T08:19:28.680Z,77.20
2017-12-01T08:20:28.677Z,76.60
2017-12-01T08:21:28.714Z,77.60
2017-12-01T08:22:28.688Z,86.10
2017-12-01T08:23:28.753Z,81.50
2017-12-01T08:24:28.723Z,77.30
2017-12-01T08:25:28.767Z,76.10
2017-12-01T08:26:28.703Z,75.00
2017-12-01T08:27:28.701Z,75.10
2017-12-01T08:28:28.711Z,73.70
2017-12-01T08:29:28.745Z,71.30
2017-12-01T08:30:28.712Z,74.80
2017-12-01T08:31:28.720Z,70.80
2017-12-01T08:32:28.727Z,66.50
2017-12-01T08:33:28.736Z,68.50
2017-12-01T08:34:28.742Z,66.20
2017-12-01T08:35:28.743Z,76.10
2017-12-01T08:36:28.735Z,63.40
2017-12-01T08:37:28.748Z,70.50
2017-12-01T08:38:28.760Z,69.00
2017-12-01T08:39:28.752Z,66.30
2017-12-01T08:40:28.760Z,64.60
2017-12-01T08:41:29.839Z,67.80
2017-12-01T08:42:28.761Z,66.60
2017-12-01T08:43:28.784Z,66.80
2017-12-01T08:44:28.771Z,68.20
2017-12-01T08:45:29.784Z,69.10
2017-12-01T08:46:28.779Z,68.80
2017-12-01T08:47:28.788Z,73.00
2017-12-01T08:48:28.777Z,69.40
2017-12-01T08:49:28.799Z,64.90
2017-12-01T08:50:28.809Z,66.30
2017-12-01T08:51:28.813Z,67.30
2017-12-01T08:52:28.802Z,69.30
2017-12-01T08:53:29.916Z,68.30
2017-12-01T08:54:28.809Z,65.80
2017-12-01T08:55:28.991Z,63.90
2017-12-01T08:56:28.809Z,62.30
2017-12-01T08:57:28.817Z,65.20
2017-12-01T08:58:29.934Z,62.10
2017-12-01T08:59:28.830Z,70.00
2017-12-01T09:00:28.932Z,63.90
2017-12-01T09:01:28.835Z,66.10
2017-12-01T09:02:28.944Z,66.80
2017-12-01T09:03:28.842Z,68.20
2017-12-01T09:04:28.948Z,65.50
2017-12-01T09:05:28.852Z,65.10
2017-12-01T09:06:29.884Z,64.80
2017-12-01T09:07:28.862Z,66.70
2017-12-01T09:08:29.896Z,67.20
2017-12-01T09:09:28.862Z,68.90
2017-12-01T09:10:28.894Z,68.00
2017-12-01T09:11:28.875Z,65.10
2017-12-01T09:12:28.905Z,68.80
2017-12-01T09:13:28.891Z,64.50
2017-12-01T09:14:28.914Z,67.30
2017-12-01T09:15:28.905Z,67.60
2017-12-01T09:16:28.933Z,67.50
2017-12-01T09:17:28.897Z,59.10
2017-12-01T09:18:28.940Z,60.70
2017-12-01T09:19:28.917Z,65.70
2017-12-01T09:20:28.958Z,63.70
2017-12-01T09:21:28.910Z,63.80
2017-12-01T09:22:28.980Z,63.80
2017-12-01T09:23:28.926Z,63.80
2017-12-01T09:24:28.985Z,65.70
2017-12-01T09:25:28.924Z,61.40
2017-12-01T09:26:29.991Z,61.30
2017-12-01T09:27:28.936Z,63.20
2017-12-01T09:28:28.980Z,58.80
2017-12-01T09:29:28.942Z,64.60
2017-12-01T09:30:29.025Z,64.60
2017-12-01T09:31:28.956Z,61.30
2017-12-01T09:32:29.112Z,63.30
2017-12-01T09:33:28.975Z,56.20
2017-12-01T09:34:28.986Z,64.20
2017-12-01T09:35:29.028Z,65.50
2017-12-01T09:36:28.970Z,61.30
2017-12-01T09:37:29.097Z,59.30
2017-12-01T09:38:28.985Z,60.00
2017-12-01T09:39:29.069Z,63.40
2017-12-01T09:40:28.984Z,61.80
2017-12-01T09:41:29.066Z,60.30
2017-12-01T09:42:29.010Z,59.90
2017-12-01T09:43:29.095Z,58.50
2017-12-01T09:44:29.015Z,58.50
2017-12-01T09:45:29.081Z,63.50
2017-12-01T09:46:29.046Z,63.50
2017-12-01T09:47:29.106Z,54.00
2017-12-01T09:48:29.028Z,57.00
2017-12-01T09:49:29.122Z,58.60
2017-12-01T09:50:29.027Z,62.10
2017-12-01T09:51:29.125Z,59.20
2017-12-01T09:52:29.027Z,61.10
2017-12-01T09:53:30.066Z,60.30
2017-12-01T09:54:29.059Z,58.00
2017-12-01T09:55:29.162Z,63.00
2017-12-01T09:56:29.063Z,63.50
2017-12-01T09:57:29.066Z,63.80
2017-12-01T09:58:29.051Z,64.70
2017-12-01T09:59:29.178Z,62.50
2017-12-01T10:00:29.064Z,62.40
2017-12-01T10:01:29.115Z,61.70
2017-12-01T10:02:29.072Z,65.90
2017-12-01T10:03:29.079Z,64.40
2017-12-01T10:04:29.078Z,60.00
2017-12-01T10:05:29.120Z,65.30
2017-12-01T10:06:29.084Z,59.10
2017-12-01T10:07:30.160Z,59.70
2017-12-01T10:08:29.133Z,65.20
2017-12-01T10:09:29.151Z,60.30
2017-12-01T10:10:29.109Z,62.50
2017-12-01T10:11:29.164Z,57.60
2017-12-01T10:12:29.106Z,59.70
2017-12-01T10:13:29.173Z,56.70
2017-12-01T10:14:29.114Z,61.80
2017-12-01T10:15:29.197Z,62.30
2017-12-01T10:16:29.121Z,64.60
2017-12-01T10:17:29.202Z,63.20
2017-12-01T10:18:29.129Z,58.00
2017-12-01T10:19:29.218Z,57.10
2017-12-01T10:20:29.155Z,57.30
2017-12-01T10:21:29.232Z,58.30
2017-12-01T10:22:29.142Z,59.20
2017-12-01T10:23:29.242Z,59.00
2017-12-01T10:24:29.153Z,56.70
2017-12-01T10:25:29.276Z,61.00
2017-12-01T10:26:29.184Z,56.30
2017-12-01T10:27:30.190Z,57.20
2017-12-01T10:28:29.192Z,56.70
2017-12-01T10:29:29.284Z,54.90
2017-12-01T10:30:29.182Z,51.80
2017-12-01T10:31:29.297Z,53.90
2017-12-01T10:32:29.204Z,54.50
2017-12-01T10:33:30.242Z,56.10
2017-12-01T10:34:29.198Z,56.40
2017-12-01T10:35:29.227Z,52.00
2017-12-01T10:36:29.218Z,48.10
2017-12-01T10:37:29.230Z,49.00
2017-12-01T10:38:29.214Z,46.20
2017-12-01T10:39:29.253Z,47.50
2017-12-01T10:40:29.237Z,49.20
2017-12-01T10:41:29.279Z,45.80
2017-12-01T10:42:29.237Z,43.10
2017-12-01T10:43:29.275Z,40.10
2017-12-01T10:44:29.250Z,41.90
2017-12-01T10:45:29.286Z,41.20
2017-12-01T10:46:29.250Z,36.00
2017-12-01T10:47:29.309Z,33.40
2017-12-01T10:48:29.266Z,32.30
2017-12-01T10:49:29.312Z,28.10
2017-12-01T10:50:29.269Z,28.50
2017-12-01T10:51:29.268Z,28.10
2017-12-01T10:52:29.284Z,26.50
2017-12-01T10:53:31.395Z,23.30
2017-12-01T10:54:29.294Z,26.60
2017-12-01T10:55:30.299Z,27.10
2017-12-01T10:56:29.295Z,25.50
2017-12-01T10:57:29.380Z,22.50
2017-12-01T10:58:29.295Z,22.90
2017-12-01T10:59:29.377Z,24.40
2017-12-01T11:00:29.308Z,23.70
2017-12-01T11:01:30.431Z,22.30
2017-12-01T11:02:29.315Z,22.60
2017-12-01T11:03:29.409Z,18.90
2017-12-01T11:04:29.346Z,19.40
2017-12-01T11:05:29.420Z,19.90
2017-12-01T11:06:29.340Z,20.20
2017-12-01T11:07:29.443Z,17.60
2017-12-01T11:08:29.343Z,17.80
2017-12-01T11:09:29.449Z,19.50
2017-12-01T11:10:29.361Z,22.60
2017-12-01T11:11:30.435Z,17.60
2017-12-01T11:12:29.376Z,16.00
2017-12-01T11:13:29.423Z,15.90
2017-12-01T11:14:29.371Z,17.50
2017-12-01T11:15:29.435Z,18.00
2017-12-01T11:16:29.375Z,18.70
2017-12-01T11:17:29.549Z,18.20
2017-12-01T11:18:29.398Z,15.40
2017-12-01T11:19:29.458Z,19.60
2017-12-01T11:20:29.397Z,18.90
2017-12-01T11:21:29.477Z,24.40
2017-12-01T11:22:29.404Z,18.90
2017-12-01T11:23:29.494Z,20.50
2017-12-01T11:24:29.442Z,18.50
2017-12-01T11:25:29.420Z,18.20
2017-12-01T11:26:29.517Z,20.70
2017-12-01T11:27:29.432Z,19.80
2017-12-01T11:28:29.523Z,21.60
2017-12-01T11:29:29.464Z,19.20
2017-12-01T11:30:29.546Z,19.40
2017-12-01T11:31:29.456Z,21.60
2017-12-01T11:32:29.567Z,19.40
2017-12-01T11:33:29.487Z,23.20
2017-12-01T11:34:31.515Z,23.50
2017-12-01T11:35:29.460Z,24.00
2017-12-01T11:36:29.932Z,22.00
2017-12-01T11:37:29.477Z,25.00
2017-12-01T11:38:29.497Z,23.20
2017-12-01T11:39:29.487Z,22.70
2017-12-01T11:40:29.503Z,21.30
2017-12-01T11:41:29.497Z,23.10
2017-12-01T11:42:29.527Z,24.40
2017-12-01T11:43:29.498Z,30.20
2017-12-01T11:44:29.529Z,25.10
2017-12-01T11:45:29.516Z,27.60
2017-12-01T11:46:29.542Z,28.50
2017-12-01T11:47:29.517Z,30.20
2017-12-01T11:48:29.559Z,27.80
2017-12-01T11:49:29.534Z,23.60
2017-12-01T11:50:29.573Z,24.20
2017-12-01T11:51:29.539Z,24.50
2017-12-01T11:52:31.686Z,26.10
2017-12-01T11:53:29.563Z,25.70
2017-12-01T11:54:29.601Z,34.20
2017-12-01T11:55:29.560Z,28.80
2017-12-01T11:56:29.668Z,29.20
2017-12-01T11:57:29.561Z,30.00
2017-12-01T11:58:29.579Z,27.40
2017-12-01T11:59:29.580Z,26.90
2017-12-01T12:00:29.597Z,26.50
2017-12-01T12:01:29.582Z,30.90
2017-12-01T12:02:29.616Z,26.90
2017-12-01T12:03:29.598Z,27.50
2017-12-01T12:04:29.607Z,25.40
2017-12-01T12:05:29.615Z,22.50
2017-12-01T12:06:29.604Z,22.40
2017-12-01T12:07:29.654Z,23.20
2017-12-01T12:08:29.609Z,22.00
2017-12-01T12:09:29.617Z,20.80
2017-12-01T12:10:29.646Z,21.10
2017-12-01T12:11:29.639Z,22.50
2017-12-01T12:12:29.628Z,22.60
2017-12-01T12:13:29.647Z,24.10
2017-12-01T12:14:29.646Z,18.80
2017-12-01T12:15:29.657Z,21.60
2017-12-01T12:16:29.653Z,22.10
2017-12-01T12:17:29.658Z,19.60
2017-12-01T12:18:29.660Z,19.90
2017-12-01T12:19:29.665Z,24.50
2017-12-01T12:20:29.776Z,23.20
2017-12-01T12:21:29.692Z,20.60
2017-12-01T12:22:29.689Z,31.20
2017-12-01T12:23:29.791Z,30.30
2017-12-01T12:24:29.707Z,16.50
2017-12-01T12:25:29.701Z,15.60
2017-12-01T12:26:29.694Z,17.30
2017-12-01T12:27:29.767Z,14.90
2017-12-01T12:28:29.722Z,19.10
2017-12-01T12:29:29.737Z,19.90
2017-12-01T12:30:29.722Z,17.30
2017-12-01T12:31:29.718Z,21.80
2017-12-01T12:32:29.760Z,17.30
2017-12-01T12:33:29.730Z,13.70
2017-12-01T12:34:29.776Z,14.60
2017-12-01T12:35:29.738Z,16.10
2017-12-01T12:36:30.808Z,16.30
2017-12-01T12:37:29.745Z,17.80
2017-12-01T12:38:29.799Z,16.50
2017-12-01T12:39:29.761Z,15.30
2017-12-01T12:40:30.835Z,17.80
2017-12-01T12:41:29.777Z,17.20
2017-12-01T12:42:29.832Z,15.60
2017-12-01T12:43:29.771Z,17.80
2017-12-01T12:44:29.832Z,19.20
2017-12-01T12:45:29.823Z,18.80
2017-12-01T12:46:29.862Z,20.90
2017-12-01T12:47:29.798Z,18.50
2017-12-01T12:48:29.869Z,15.50
2017-12-01T12:49:29.800Z,15.60
2017-12-01T12:50:29.893Z,17.20
2017-12-01T12:51:29.837Z,15.30
2017-12-01T12:52:29.902Z,13.90